sensor_id;sensor_type;location;lat;lon;timestamp;temperature;humidity
21035;DHT22;10676;50.848;3.272;2022-11-30T00:01:13;6.90;99.90
21035;DHT22;10676;50.848;3.272;2022-11-30T00:03:39;6.80;99.90
21035;DHT22;10676;50.848;3.272;2022-11-30T00:06:07;6.80;99.90
21035;DHT22;10676;50.848;3.272;2022-11-30T00:08:33;6.70;99.90
21035;DHT22;10676;50.848;3.272;2022-11-30T00:10:58;6.80;99.90
21035;DHT22;10676;50.848;3.272;2022-11-30T00:13:24;6.80;99.90
21035;DHT22;10676;50.848;3.272;2022-11-30T00:15:50;6.80;99.90
21035;DHT22;10676;50.848;3.272;2022-11-30T00:18:15;6.80;99.90
21035;DHT22;10676;50.848;3.272;2022-11-30T00:20:42;6.80;99.90
21035;DHT22;10676;50.848;3.272;2022-11-30T00:23:08;6.80;99.90
21035;DHT22;10676;50.848;3.272;2022-11-30T00:25:35;6.80;99.90
21035;DHT22;10676;50.848;3.272;2022-11-30T00:28:01;6.80;99.90
21035;DHT22;10676;50.848;3.272;2022-11-30T00:30:27;6.80;99.90
21035;DHT22;10676;50.848;3.272;2022-11-30T00:32:56;6.80;99.90
21035;DHT22;10676;50.848;3.272;2022-11-30T00:35:22;6.90;99.90
21035;DHT22;10676;50.848;3.272;2022-11-30T00:37:47;6.80;99.90
21035;DHT22;10676;50.848;3.272;2022-11-30T00:40:13;6.80;99.90
21035;DHT22;10676;50.848;3.272;2022-11-30T00:42:39;6.80;99.90
21035;DHT22;10676;50.848;3.272;2022-11-30T00:45:08;6.80;99.90
21035;DHT22;10676;50.848;3.272;2022-11-30T00:47:34;6.80;99.90
21035;DHT22;10676;50.848;3.272;2022-11-30T00:49:59;6.80;99.90
21035;DHT22;10676;50.848;3.272;2022-11-30T00:52:26;6.80;99.90
21035;DHT22;10676;50.848;3.272;2022-11-30T00:54:52;6.90;99.90
21035;DHT22;10676;50.848;3.272;2022-11-30T00:57:18;6.90;99.90
21035;DHT22;10676;50.848;3.272;2022-11-30T00:59:43;6.90;99.90
21035;DHT22;10676;50.848;3.272;2022-11-30T01:02:09;6.90;99.90
21035;DHT22;10676;50.848;3.272;2022-11-30T01:04:35;6.90;99.90
21035;DHT22;10676;50.848;3.272;2022-11-30T01:07:00;6.90;99.90
21035;DHT22;10676;50.848;3.272;2022-11-30T01:09:26;6.90;99.90
21035;DHT22;10676;50.848;3.272;2022-11-30T01:11:51;7.00;99.90
21035;DHT22;10676;50.848;3.272;2022-11-30T01:14:17;6.90;99.90
21035;DHT22;10676;50.848;3.272;2022-11-30T01:16:43;6.90;99.90
21035;DHT22;10676;50.848;3.272;2022-11-30T01:19:08;7.00;99.90
21035;DHT22;10676;50.848;3.272;2022-11-30T01:21:34;7.00;99.90
21035;DHT22;10676;50.848;3.272;2022-11-30T01:23:59;7.00;99.90
21035;DHT22;10676;50.848;3.272;2022-11-30T01:26:25;7.00;99.90
21035;DHT22;10676;50.848;3.272;2022-11-30T01:28:52;7.00;99.90
21035;DHT22;10676;50.848;3.272;2022-11-30T01:31:19;7.00;99.90
21035;DHT22;10676;50.848;3.272;2022-11-30T01:33:53;7.00;99.90
21035;DHT22;10676;50.848;3.272;2022-11-30T01:36:22;7.00;99.90
21035;DHT22;10676;50.848;3.272;2022-11-30T01:38:51;7.10;99.90
21035;DHT22;10676;50.848;3.272;2022-11-30T01:41:22;7.00;99.90
21035;DHT22;10676;50.848;3.272;2022-11-30T01:43:54;7.00;99.90
21035;DHT22;10676;50.848;3.272;2022-11-30T01:46:23;7.00;99.90
21035;DHT22;10676;50.848;3.272;2022-11-30T01:51:47;7.00;99.90
21035;DHT22;10676;50.848;3.272;2022-11-30T01:54:17;7.00;99.90
21035;DHT22;10676;50.848;3.272;2022-11-30T01:56:48;7.00;99.90
21035;DHT22;10676;50.848;3.272;2022-11-30T01:59:16;6.90;99.90
21035;DHT22;10676;50.848;3.272;2022-11-30T02:01:43;6.90;99.90
21035;DHT22;10676;50.848;3.272;2022-11-30T02:04:42;6.80;99.90
21035;DHT22;10676;50.848;3.272;2022-11-30T02:07:07;6.90;99.90
21035;DHT22;10676;50.848;3.272;2022-11-30T02:09:39;6.90;99.90
21035;DHT22;10676;50.848;3.272;2022-11-30T02:12:08;6.80;99.90
21035;DHT22;10676;50.848;3.272;2022-11-30T02:14:45;6.90;99.90
21035;DHT22;10676;50.848;3.272;2022-11-30T02:17:58;6.90;99.90
21035;DHT22;10676;50.848;3.272;2022-11-30T02:20:31;7.00;99.90
21035;DHT22;10676;50.848;3.272;2022-11-30T02:31:19;7.10;99.90
21035;DHT22;10676;50.848;3.272;2022-11-30T02:33:46;7.00;99.90
21035;DHT22;10676;50.848;3.272;2022-11-30T02:36:13;7.10;99.90
21035;DHT22;10676;50.848;3.272;2022-11-30T02:38:39;7.10;99.90
21035;DHT22;10676;50.848;3.272;2022-11-30T02:41:05;7.10;99.90
21035;DHT22;10676;50.848;3.272;2022-11-30T02:43:32;7.10;99.90
21035;DHT22;10676;50.848;3.272;2022-11-30T02:46:06;7.10;99.90
21035;DHT22;10676;50.848;3.272;2022-11-30T02:48:41;7.10;99.90
21035;DHT22;10676;50.848;3.272;2022-11-30T02:51:11;7.20;99.90
21035;DHT22;10676;50.848;3.272;2022-11-30T02:53:38;7.20;99.90
21035;DHT22;10676;50.848;3.272;2022-11-30T02:56:04;7.20;99.90
21035;DHT22;10676;50.848;3.272;2022-11-30T02:58:29;7.20;99.90
21035;DHT22;10676;50.848;3.272;2022-11-30T03:00:55;7.20;99.90
21035;DHT22;10676;50.848;3.272;2022-11-30T03:03:21;7.10;99.90
21035;DHT22;10676;50.848;3.272;2022-11-30T03:05:47;7.10;99.90
21035;DHT22;10676;50.848;3.272;2022-11-30T03:08:12;7.20;99.90
21035;DHT22;10676;50.848;3.272;2022-11-30T03:10:38;7.20;99.90
21035;DHT22;10676;50.848;3.272;2022-11-30T03:13:04;7.20;99.90
21035;DHT22;10676;50.848;3.272;2022-11-30T03:15:29;7.20;99.90
21035;DHT22;10676;50.848;3.272;2022-11-30T03:17:55;7.20;99.90
21035;DHT22;10676;50.848;3.272;2022-11-30T03:20:20;7.30;99.90
21035;DHT22;10676;50.848;3.272;2022-11-30T03:22:46;7.30;99.90
21035;DHT22;10676;50.848;3.272;2022-11-30T03:25:12;7.30;99.90
21035;DHT22;10676;50.848;3.272;2022-11-30T03:27:37;7.30;99.90
21035;DHT22;10676;50.848;3.272;2022-11-30T03:30:03;7.30;99.90
21035;DHT22;10676;50.848;3.272;2022-11-30T03:32:30;7.30;99.90
21035;DHT22;10676;50.848;3.272;2022-11-30T03:34:55;7.30;99.90
21035;DHT22;10676;50.848;3.272;2022-11-30T03:37:21;7.30;99.90
21035;DHT22;10676;50.848;3.272;2022-11-30T03:39:47;7.40;99.90
21035;DHT22;10676;50.848;3.272;2022-11-30T03:42:12;7.40;99.90
21035;DHT22;10676;50.848;3.272;2022-11-30T03:44:38;7.40;99.90
21035;DHT22;10676;50.848;3.272;2022-11-30T03:47:04;7.40;99.90
21035;DHT22;10676;50.848;3.272;2022-11-30T03:49:29;7.40;99.90
21035;DHT22;10676;50.848;3.272;2022-11-30T03:51:55;7.40;99.90
21035;DHT22;10676;50.848;3.272;2022-11-30T03:54:21;7.50;99.90
21035;DHT22;10676;50.848;3.272;2022-11-30T03:56:46;7.50;99.90
21035;DHT22;10676;50.848;3.272;2022-11-30T03:59:12;7.50;99.90
21035;DHT22;10676;50.848;3.272;2022-11-30T04:01:41;7.50;99.90
21035;DHT22;10676;50.848;3.272;2022-11-30T04:04:07;7.50;99.90
21035;DHT22;10676;50.848;3.272;2022-11-30T04:06:33;7.50;99.90
21035;DHT22;10676;50.848;3.272;2022-11-30T04:08:58;7.50;99.90
21035;DHT22;10676;50.848;3.272;2022-11-30T04:11:24;7.60;99.90
21035;DHT22;10676;50.848;3.272;2022-11-30T04:13:50;7.60;99.90
21035;DHT22;10676;50.848;3.272;2022-11-30T04:16:15;7.60;99.90
21035;DHT22;10676;50.848;3.272;2022-11-30T04:18:41;7.60;99.90
21035;DHT22;10676;50.848;3.272;2022-11-30T04:21:07;7.60;99.90
21035;DHT22;10676;50.848;3.272;2022-11-30T04:23:35;7.70;99.90
21035;DHT22;10676;50.848;3.272;2022-11-30T04:26:05;7.60;99.90
21035;DHT22;10676;50.848;3.272;2022-11-30T04:28:31;7.60;99.90
21035;DHT22;10676;50.848;3.272;2022-11-30T04:30:57;7.70;99.90
21035;DHT22;10676;50.848;3.272;2022-11-30T04:33:25;7.70;99.90
21035;DHT22;10676;50.848;3.272;2022-11-30T04:35:56;7.80;99.90
21035;DHT22;10676;50.848;3.272;2022-11-30T04:38:23;7.70;99.90
21035;DHT22;10676;50.848;3.272;2022-11-30T04:40:49;7.70;99.90
21035;DHT22;10676;50.848;3.272;2022-11-30T04:43:15;7.70;99.90
21035;DHT22;10676;50.848;3.272;2022-11-30T04:45:43;7.70;99.90
21035;DHT22;10676;50.848;3.272;2022-11-30T04:48:09;7.70;99.90
21035;DHT22;10676;50.848;3.272;2022-11-30T04:50:35;7.70;99.90
21035;DHT22;10676;50.848;3.272;2022-11-30T04:53:01;7.70;99.90
21035;DHT22;10676;50.848;3.272;2022-11-30T04:55:27;7.90;99.90
21035;DHT22;10676;50.848;3.272;2022-11-30T04:57:53;7.70;99.90
21035;DHT22;10676;50.848;3.272;2022-11-30T05:00:19;7.70;99.90
21035;DHT22;10676;50.848;3.272;2022-11-30T05:02:45;7.70;99.90
21035;DHT22;10676;50.848;3.272;2022-11-30T05:05:11;7.60;99.90
21035;DHT22;10676;50.848;3.272;2022-11-30T05:07:37;7.60;99.90
21035;DHT22;10676;50.848;3.272;2022-11-30T05:10:04;7.50;99.90
21035;DHT22;10676;50.848;3.272;2022-11-30T05:12:30;7.50;99.90
21035;DHT22;10676;50.848;3.272;2022-11-30T05:14:55;7.50;99.90
21035;DHT22;10676;50.848;3.272;2022-11-30T05:17:21;7.40;99.90
21035;DHT22;10676;50.848;3.272;2022-11-30T05:19:47;7.40;99.90
21035;DHT22;10676;50.848;3.272;2022-11-30T05:22:12;7.50;99.90
21035;DHT22;10676;50.848;3.272;2022-11-30T05:24:39;7.40;99.90
21035;DHT22;10676;50.848;3.272;2022-11-30T05:27:06;7.40;99.90
21035;DHT22;10676;50.848;3.272;2022-11-30T05:29:32;7.40;99.90
21035;DHT22;10676;50.848;3.272;2022-11-30T05:32:00;7.40;99.90
21035;DHT22;10676;50.848;3.272;2022-11-30T05:34:25;7.40;99.90
21035;DHT22;10676;50.848;3.272;2022-11-30T05:36:51;7.40;99.90
21035;DHT22;10676;50.848;3.272;2022-11-30T05:39:17;7.50;99.90
21035;DHT22;10676;50.848;3.272;2022-11-30T05:41:43;7.50;99.90
21035;DHT22;10676;50.848;3.272;2022-11-30T05:44:09;7.50;99.90
21035;DHT22;10676;50.848;3.272;2022-11-30T05:46:36;7.50;99.90
21035;DHT22;10676;50.848;3.272;2022-11-30T05:49:01;7.50;99.90
21035;DHT22;10676;50.848;3.272;2022-11-30T05:51:27;7.50;99.90
21035;DHT22;10676;50.848;3.272;2022-11-30T05:53:53;7.60;99.90
21035;DHT22;10676;50.848;3.272;2022-11-30T05:56:19;7.50;99.90
21035;DHT22;10676;50.848;3.272;2022-11-30T05:58:46;7.40;99.90
21035;DHT22;10676;50.848;3.272;2022-11-30T06:01:20;7.50;99.90
21035;DHT22;10676;50.848;3.272;2022-11-30T06:03:46;7.50;99.90
21035;DHT22;10676;50.848;3.272;2022-11-30T06:06:12;7.50;99.90
21035;DHT22;10676;50.848;3.272;2022-11-30T06:08:37;7.50;99.90
21035;DHT22;10676;50.848;3.272;2022-11-30T06:11:03;7.40;99.90
21035;DHT22;10676;50.848;3.272;2022-11-30T06:13:29;7.40;99.90
21035;DHT22;10676;50.848;3.272;2022-11-30T06:16:00;7.40;99.90
21035;DHT22;10676;50.848;3.272;2022-11-30T06:18:28;7.50;99.90
21035;DHT22;10676;50.848;3.272;2022-11-30T06:20:57;7.50;99.90
21035;DHT22;10676;50.848;3.272;2022-11-30T06:23:23;7.60;99.90
21035;DHT22;10676;50.848;3.272;2022-11-30T06:25:49;7.50;99.90
21035;DHT22;10676;50.848;3.272;2022-11-30T06:28:14;7.50;99.90
21035;DHT22;10676;50.848;3.272;2022-11-30T06:30:40;7.50;99.90
21035;DHT22;10676;50.848;3.272;2022-11-30T06:33:06;7.50;99.90
21035;DHT22;10676;50.848;3.272;2022-11-30T06:35:31;7.50;99.90
21035;DHT22;10676;50.848;3.272;2022-11-30T06:37:57;7.50;99.90
21035;DHT22;10676;50.848;3.272;2022-11-30T06:40:25;7.50;99.90
21035;DHT22;10676;50.848;3.272;2022-11-30T06:42:50;7.50;99.90
21035;DHT22;10676;50.848;3.272;2022-11-30T06:45:16;7.60;99.90
21035;DHT22;10676;50.848;3.272;2022-11-30T06:47:42;7.50;99.90
21035;DHT22;10676;50.848;3.272;2022-11-30T06:50:12;7.50;99.90
21035;DHT22;10676;50.848;3.272;2022-11-30T06:52:38;7.50;99.90
21035;DHT22;10676;50.848;3.272;2022-11-30T06:55:04;7.50;99.90
21035;DHT22;10676;50.848;3.272;2022-11-30T06:57:30;7.50;99.90
21035;DHT22;10676;50.848;3.272;2022-11-30T06:59:56;7.50;99.90
21035;DHT22;10676;50.848;3.272;2022-11-30T07:02:22;7.50;99.90
21035;DHT22;10676;50.848;3.272;2022-11-30T07:04:47;7.50;99.90
21035;DHT22;10676;50.848;3.272;2022-11-30T07:07:13;7.50;99.90
21035;DHT22;10676;50.848;3.272;2022-11-30T07:09:39;7.50;99.90
21035;DHT22;10676;50.848;3.272;2022-11-30T07:12:05;7.50;99.90
21035;DHT22;10676;50.848;3.272;2022-11-30T07:14:31;7.50;99.90
21035;DHT22;10676;50.848;3.272;2022-11-30T07:16:57;7.50;99.90
21035;DHT22;10676;50.848;3.272;2022-11-30T07:19:22;7.50;99.90
21035;DHT22;10676;50.848;3.272;2022-11-30T07:21:48;7.50;99.90
21035;DHT22;10676;50.848;3.272;2022-11-30T07:24:14;7.50;99.90
21035;DHT22;10676;50.848;3.272;2022-11-30T07:27:00;7.50;99.90
21035;DHT22;10676;50.848;3.272;2022-11-30T07:29:26;7.50;99.90
21035;DHT22;10676;50.848;3.272;2022-11-30T07:31:52;7.50;99.90
21035;DHT22;10676;50.848;3.272;2022-11-30T07:34:19;7.50;99.90
21035;DHT22;10676;50.848;3.272;2022-11-30T07:36:48;7.50;99.90
21035;DHT22;10676;50.848;3.272;2022-11-30T07:39:14;7.50;99.90
21035;DHT22;10676;50.848;3.272;2022-11-30T07:41:40;7.50;99.90
21035;DHT22;10676;50.848;3.272;2022-11-30T07:44:07;7.50;99.90
21035;DHT22;10676;50.848;3.272;2022-11-30T07:46:33;7.50;99.90
21035;DHT22;10676;50.848;3.272;2022-11-30T07:49:04;7.70;99.90
21035;DHT22;10676;50.848;3.272;2022-11-30T07:51:31;7.50;99.90
21035;DHT22;10676;50.848;3.272;2022-11-30T07:53:57;7.60;99.90
21035;DHT22;10676;50.848;3.272;2022-11-30T07:56:23;7.70;99.90
21035;DHT22;10676;50.848;3.272;2022-11-30T07:58:53;7.70;99.90
21035;DHT22;10676;50.848;3.272;2022-11-30T08:01:21;7.80;99.90
21035;DHT22;10676;50.848;3.272;2022-11-30T08:03:47;7.90;99.90
21035;DHT22;10676;50.848;3.272;2022-11-30T08:06:16;7.90;99.90
21035;DHT22;10676;50.848;3.272;2022-11-30T08:08:45;8.00;99.90
21035;DHT22;10676;50.848;3.272;2022-11-30T08:11:14;8.10;99.90
21035;DHT22;10676;50.848;3.272;2022-11-30T08:13:40;8.20;99.90
21035;DHT22;10676;50.848;3.272;2022-11-30T08:16:09;8.20;99.90
21035;DHT22;10676;50.848;3.272;2022-11-30T08:18:35;8.30;99.90
21035;DHT22;10676;50.848;3.272;2022-11-30T08:21:04;8.40;99.90
21035;DHT22;10676;50.848;3.272;2022-11-30T08:23:35;8.50;99.90
21035;DHT22;10676;50.848;3.272;2022-11-30T08:26:06;8.60;99.90
21035;DHT22;10676;50.848;3.272;2022-11-30T08:28:33;8.70;99.90
21035;DHT22;10676;50.848;3.272;2022-11-30T08:31:01;8.70;99.90
21035;DHT22;10676;50.848;3.272;2022-11-30T08:33:29;8.80;99.90
21035;DHT22;10676;50.848;3.272;2022-11-30T08:36:07;8.70;99.90
21035;DHT22;10676;50.848;3.272;2022-11-30T08:38:34;8.70;99.90
21035;DHT22;10676;50.848;3.272;2022-11-30T08:41:00;8.70;99.90
21035;DHT22;10676;50.848;3.272;2022-11-30T08:43:26;8.70;99.90
21035;DHT22;10676;50.848;3.272;2022-11-30T08:45:52;8.70;99.90
21035;DHT22;10676;50.848;3.272;2022-11-30T08:48:18;8.70;99.90
21035;DHT22;10676;50.848;3.272;2022-11-30T08:50:44;8.70;99.90
21035;DHT22;10676;50.848;3.272;2022-11-30T08:53:09;8.80;99.90
21035;DHT22;10676;50.848;3.272;2022-11-30T08:55:35;8.90;99.90
21035;DHT22;10676;50.848;3.272;2022-11-30T08:58:01;9.00;99.90
21035;DHT22;10676;50.848;3.272;2022-11-30T09:00:26;9.20;99.90
21035;DHT22;10676;50.848;3.272;2022-11-30T09:02:52;9.40;99.90
21035;DHT22;10676;50.848;3.272;2022-11-30T09:05:19;9.60;99.90
21035;DHT22;10676;50.848;3.272;2022-11-30T09:07:44;9.80;99.90
21035;DHT22;10676;50.848;3.272;2022-11-30T09:10:11;10.00;99.90
21035;DHT22;10676;50.848;3.272;2022-11-30T09:12:38;10.10;99.90
21035;DHT22;10676;50.848;3.272;2022-11-30T09:15:05;10.20;99.90
21035;DHT22;10676;50.848;3.272;2022-11-30T09:17:31;10.20;99.90
21035;DHT22;10676;50.848;3.272;2022-11-30T09:19:58;10.10;99.90
21035;DHT22;10676;50.848;3.272;2022-11-30T09:22:24;10.00;99.90
21035;DHT22;10676;50.848;3.272;2022-11-30T09:24:52;10.00;99.90
21035;DHT22;10676;50.848;3.272;2022-11-30T09:27:18;10.10;99.90
21035;DHT22;10676;50.848;3.272;2022-11-30T09:29:44;10.10;99.90
21035;DHT22;10676;50.848;3.272;2022-11-30T09:32:09;10.10;99.90
21035;DHT22;10676;50.848;3.272;2022-11-30T09:34:35;10.20;99.90
21035;DHT22;10676;50.848;3.272;2022-11-30T09:37:01;10.20;99.90
21035;DHT22;10676;50.848;3.272;2022-11-30T09:39:26;10.30;99.90
21035;DHT22;10676;50.848;3.272;2022-11-30T09:49:56;10.50;99.90
21035;DHT22;10676;50.848;3.272;2022-11-30T09:52:32;10.50;99.90
21035;DHT22;10676;50.848;3.272;2022-11-30T09:55:00;10.40;99.90
21035;DHT22;10676;50.848;3.272;2022-11-30T09:58:11;10.40;99.90
21035;DHT22;10676;50.848;3.272;2022-11-30T10:00:28;10.40;99.90
21035;DHT22;10676;50.848;3.272;2022-11-30T10:02:56;10.30;99.90
21035;DHT22;10676;50.848;3.272;2022-11-30T10:16:34;10.70;99.90
21035;DHT22;10676;50.848;3.272;2022-11-30T10:22:18;10.60;99.90
21035;DHT22;10676;50.848;3.272;2022-11-30T10:27:49;10.50;99.90
21035;DHT22;10676;50.848;3.272;2022-11-30T10:30:20;10.50;99.90
21035;DHT22;10676;50.848;3.272;2022-11-30T10:32:53;10.40;99.90
21035;DHT22;10676;50.848;3.272;2022-11-30T10:35:32;10.30;99.90
21035;DHT22;10676;50.848;3.272;2022-11-30T10:38:03;10.30;99.90
21035;DHT22;10676;50.848;3.272;2022-11-30T10:40:37;10.30;99.90
21035;DHT22;10676;50.848;3.272;2022-11-30T10:43:25;10.30;99.90
21035;DHT22;10676;50.848;3.272;2022-11-30T10:45:51;10.30;99.90
21035;DHT22;10676;50.848;3.272;2022-11-30T10:51:01;10.30;99.90
21035;DHT22;10676;50.848;3.272;2022-11-30T10:53:30;10.30;99.90
21035;DHT22;10676;50.848;3.272;2022-11-30T10:56:11;10.30;99.90
21035;DHT22;10676;50.848;3.272;2022-11-30T10:58:56;10.20;99.90
21035;DHT22;10676;50.848;3.272;2022-11-30T11:12:02;10.10;99.90
21035;DHT22;10676;50.848;3.272;2022-11-30T11:14:29;10.10;99.90
21035;DHT22;10676;50.848;3.272;2022-11-30T11:17:01;10.10;99.90
21035;DHT22;10676;50.848;3.272;2022-11-30T11:19:34;10.10;99.90
21035;DHT22;10676;50.848;3.272;2022-11-30T11:24:32;10.10;99.90
21035;DHT22;10676;50.848;3.272;2022-11-30T11:26:58;10.10;99.90
21035;DHT22;10676;50.848;3.272;2022-11-30T11:29:31;10.10;99.90
21035;DHT22;10676;50.848;3.272;2022-11-30T11:34:37;10.10;99.90
21035;DHT22;10676;50.848;3.272;2022-11-30T11:37:13;10.20;99.90
21035;DHT22;10676;50.848;3.272;2022-11-30T11:39:43;10.20;99.90
21035;DHT22;10676;50.848;3.272;2022-11-30T11:42:20;10.20;99.90
21035;DHT22;10676;50.848;3.272;2022-11-30T11:44:53;10.30;99.90
21035;DHT22;10676;50.848;3.272;2022-11-30T11:47:25;10.30;99.90
21035;DHT22;10676;50.848;3.272;2022-11-30T11:50:04;10.30;99.90
21035;DHT22;10676;50.848;3.272;2022-11-30T11:52:31;10.30;99.90
21035;DHT22;10676;50.848;3.272;2022-11-30T11:55:13;10.30;99.90
21035;DHT22;10676;50.848;3.272;2022-11-30T11:57:48;10.30;99.90
21035;DHT22;10676;50.848;3.272;2022-11-30T12:00:19;10.20;99.90
21035;DHT22;10676;50.848;3.272;2022-11-30T12:05:52;10.20;99.90
21035;DHT22;10676;50.848;3.272;2022-11-30T12:08:51;10.20;99.90
21035;DHT22;10676;50.848;3.272;2022-11-30T12:11:24;10.20;99.90
21035;DHT22;10676;50.848;3.272;2022-11-30T12:13:54;10.20;99.90
21035;DHT22;10676;50.848;3.272;2022-11-30T12:19:19;10.10;99.90
21035;DHT22;10676;50.848;3.272;2022-11-30T12:22:29;10.10;99.90
21035;DHT22;10676;50.848;3.272;2022-11-30T12:32:59;9.80;99.90
21035;DHT22;10676;50.848;3.272;2022-11-30T12:38:18;9.90;99.90
21035;DHT22;10676;50.848;3.272;2022-11-30T12:43:33;10.00;99.90
21035;DHT22;10676;50.848;3.272;2022-11-30T12:46:11;10.10;99.90
21035;DHT22;10676;50.848;3.272;2022-11-30T12:48:57;10.10;99.90
21035;DHT22;10676;50.848;3.272;2022-11-30T12:51:42;10.20;99.90
21035;DHT22;10676;50.848;3.272;2022-11-30T12:57:33;10.60;99.90
21035;DHT22;10676;50.848;3.272;2022-11-30T13:05:26;11.10;99.90
21035;DHT22;10676;50.848;3.272;2022-11-30T13:08:11;11.20;99.90
21035;DHT22;10676;50.848;3.272;2022-11-30T13:10:42;11.20;99.90
21035;DHT22;10676;50.848;3.272;2022-11-30T13:13:18;11.20;99.90
21035;DHT22;10676;50.848;3.272;2022-11-30T13:15:44;11.30;99.90
21035;DHT22;10676;50.848;3.272;2022-11-30T13:18:19;11.40;99.90
21035;DHT22;10676;50.848;3.272;2022-11-30T13:23:26;12.00;99.90
21035;DHT22;10676;50.848;3.272;2022-11-30T13:34:25;13.20;99.90
21035;DHT22;10676;50.848;3.272;2022-11-30T13:36:59;13.20;99.90
21035;DHT22;10676;50.848;3.272;2022-11-30T13:39:27;13.20;99.90
21035;DHT22;10676;50.848;3.272;2022-11-30T13:47:04;12.90;99.90
21035;DHT22;10676;50.848;3.272;2022-11-30T13:49:32;12.70;99.90
21035;DHT22;10676;50.848;3.272;2022-11-30T13:51:59;12.60;99.90
21035;DHT22;10676;50.848;3.272;2022-11-30T13:54:45;12.50;99.90
21035;DHT22;10676;50.848;3.272;2022-11-30T14:00:42;12.20;99.90
21035;DHT22;10676;50.848;3.272;2022-11-30T14:10:54;11.50;99.90
21035;DHT22;10676;50.848;3.272;2022-11-30T14:13:39;11.30;99.90
21035;DHT22;10676;50.848;3.272;2022-11-30T14:16:22;11.10;99.90
21035;DHT22;10676;50.848;3.272;2022-11-30T14:18:49;11.00;99.90
21035;DHT22;10676;50.848;3.272;2022-11-30T14:21:32;11.00;99.90
21035;DHT22;10676;50.848;3.272;2022-11-30T14:24:13;10.90;99.90
21035;DHT22;10676;50.848;3.272;2022-11-30T14:26:45;10.90;99.90
21035;DHT22;10676;50.848;3.272;2022-11-30T14:29:34;10.90;99.90
21035;DHT22;10676;50.848;3.272;2022-11-30T14:32:11;10.80;99.90
21035;DHT22;10676;50.848;3.272;2022-11-30T14:34:44;10.80;99.90
21035;DHT22;10676;50.848;3.272;2022-11-30T14:37:34;10.80;99.90
21035;DHT22;10676;50.848;3.272;2022-11-30T14:40:04;10.70;99.90
21035;DHT22;10676;50.848;3.272;2022-11-30T14:42:32;10.70;99.90
21035;DHT22;10676;50.848;3.272;2022-11-30T14:44:58;10.70;99.90
21035;DHT22;10676;50.848;3.272;2022-11-30T14:47:34;10.60;99.90
21035;DHT22;10676;50.848;3.272;2022-11-30T14:50:01;10.60;99.90
21035;DHT22;10676;50.848;3.272;2022-11-30T14:55:44;10.50;99.90
21035;DHT22;10676;50.848;3.272;2022-11-30T15:01:26;10.30;99.90
21035;DHT22;10676;50.848;3.272;2022-11-30T15:03:55;10.20;99.90
21035;DHT22;10676;50.848;3.272;2022-11-30T15:06:27;10.10;99.90
21035;DHT22;10676;50.848;3.272;2022-11-30T15:08:57;10.00;99.90
21035;DHT22;10676;50.848;3.272;2022-11-30T15:11:23;9.90;99.90
21035;DHT22;10676;50.848;3.272;2022-11-30T15:13:51;9.80;99.90
21035;DHT22;10676;50.848;3.272;2022-11-30T15:18:50;9.70;99.90
21035;DHT22;10676;50.848;3.272;2022-11-30T15:21:22;9.70;99.90
21035;DHT22;10676;50.848;3.272;2022-11-30T15:23:56;9.60;99.90
21035;DHT22;10676;50.848;3.272;2022-11-30T15:26:30;9.60;99.90
21035;DHT22;10676;50.848;3.272;2022-11-30T15:32:02;9.50;99.90
21035;DHT22;10676;50.848;3.272;2022-11-30T15:34:42;9.50;99.90
21035;DHT22;10676;50.848;3.272;2022-11-30T15:37:09;9.40;99.90
21035;DHT22;10676;50.848;3.272;2022-11-30T15:39:35;9.40;99.90
21035;DHT22;10676;50.848;3.272;2022-11-30T15:42:03;9.30;99.90
21035;DHT22;10676;50.848;3.272;2022-11-30T15:47:01;9.10;99.90
21035;DHT22;10676;50.848;3.272;2022-11-30T15:49:31;9.10;99.90
21035;DHT22;10676;50.848;3.272;2022-11-30T15:52:04;9.00;99.90
21035;DHT22;10676;50.848;3.272;2022-11-30T15:57:15;9.00;99.90
21035;DHT22;10676;50.848;3.272;2022-11-30T16:00:07;9.00;99.90
21035;DHT22;10676;50.848;3.272;2022-11-30T16:02:35;8.90;99.90
21035;DHT22;10676;50.848;3.272;2022-11-30T16:07:38;9.00;99.90
21035;DHT22;10676;50.848;3.272;2022-11-30T16:10:27;9.00;99.90
21035;DHT22;10676;50.848;3.272;2022-11-30T16:12:53;8.90;99.90
21035;DHT22;10676;50.848;3.272;2022-11-30T16:15:27;8.90;99.90
21035;DHT22;10676;50.848;3.272;2022-11-30T16:18:24;8.90;99.90
21035;DHT22;10676;50.848;3.272;2022-11-30T16:20:52;8.80;99.90
21035;DHT22;10676;50.848;3.272;2022-11-30T16:23:19;8.80;99.90
21035;DHT22;10676;50.848;3.272;2022-11-30T16:25:46;8.80;99.90
21035;DHT22;10676;50.848;3.272;2022-11-30T16:28:18;8.80;99.90
21035;DHT22;10676;50.848;3.272;2022-11-30T16:30:45;8.70;99.90
21035;DHT22;10676;50.848;3.272;2022-11-30T16:33:17;8.70;99.90
21035;DHT22;10676;50.848;3.272;2022-11-30T16:35:54;8.70;99.90
21035;DHT22;10676;50.848;3.272;2022-11-30T16:38:20;8.70;99.90
21035;DHT22;10676;50.848;3.272;2022-11-30T16:40:46;8.70;99.90
21035;DHT22;10676;50.848;3.272;2022-11-30T16:43:12;8.70;99.90
21035;DHT22;10676;50.848;3.272;2022-11-30T16:45:39;8.70;99.90
21035;DHT22;10676;50.848;3.272;2022-11-30T16:48:06;8.60;99.90
21035;DHT22;10676;50.848;3.272;2022-11-30T16:50:32;8.60;99.90
21035;DHT22;10676;50.848;3.272;2022-11-30T16:53:00;8.60;99.90
21035;DHT22;10676;50.848;3.272;2022-11-30T16:55:31;8.60;99.90
21035;DHT22;10676;50.848;3.272;2022-11-30T16:58:00;8.60;99.90
21035;DHT22;10676;50.848;3.272;2022-11-30T17:00:26;8.60;99.90
21035;DHT22;10676;50.848;3.272;2022-11-30T17:03:01;8.60;99.90
21035;DHT22;10676;50.848;3.272;2022-11-30T17:05:28;8.60;99.90
21035;DHT22;10676;50.848;3.272;2022-11-30T17:07:54;8.60;99.90
21035;DHT22;10676;50.848;3.272;2022-11-30T17:10:20;8.60;99.90
21035;DHT22;10676;50.848;3.272;2022-11-30T17:12:45;8.60;99.90
21035;DHT22;10676;50.848;3.272;2022-11-30T17:15:17;8.60;99.90
21035;DHT22;10676;50.848;3.272;2022-11-30T17:17:43;8.60;99.90
21035;DHT22;10676;50.848;3.272;2022-11-30T17:20:10;8.60;99.90
21035;DHT22;10676;50.848;3.272;2022-11-30T17:22:36;8.50;99.90
21035;DHT22;10676;50.848;3.272;2022-11-30T17:25:03;8.60;99.90
21035;DHT22;10676;50.848;3.272;2022-11-30T17:27:29;8.60;99.90
21035;DHT22;10676;50.848;3.272;2022-11-30T17:29:55;8.60;99.90
21035;DHT22;10676;50.848;3.272;2022-11-30T17:32:20;8.60;99.90
21035;DHT22;10676;50.848;3.272;2022-11-30T17:34:46;8.60;99.90
21035;DHT22;10676;50.848;3.272;2022-11-30T17:37:12;8.60;99.90
21035;DHT22;10676;50.848;3.272;2022-11-30T17:39:38;8.60;99.90
21035;DHT22;10676;50.848;3.272;2022-11-30T17:42:04;8.50;99.90
21035;DHT22;10676;50.848;3.272;2022-11-30T17:44:30;8.50;99.90
21035;DHT22;10676;50.848;3.272;2022-11-30T17:46:55;8.50;99.90
21035;DHT22;10676;50.848;3.272;2022-11-30T17:49:21;8.50;99.90
21035;DHT22;10676;50.848;3.272;2022-11-30T17:51:48;8.50;99.90
21035;DHT22;10676;50.848;3.272;2022-11-30T17:54:13;8.40;99.90
21035;DHT22;10676;50.848;3.272;2022-11-30T17:56:39;8.40;99.90
21035;DHT22;10676;50.848;3.272;2022-11-30T17:59:05;8.40;99.90
21035;DHT22;10676;50.848;3.272;2022-11-30T18:01:31;8.40;99.90
21035;DHT22;10676;50.848;3.272;2022-11-30T18:03:56;8.30;99.90